Terminal Aerodrome Forecast
Issued by NWS Kansas City/Pleasant Hill, MO

Home | Current Version | Previous Version | Text Only | Print | Product List | Glossary On
Versions: 1 2 3 4 5 6 7 8 9 10 11 12 13 14 15 16 17 18 19 20 21
041
FTUS43 KEAX 230520
TAFMCI
TAF
KMCI 230520Z 2306/2406 15011KT P6SM SCT250
     FM231500 17013KT P6SM VCTS OVC045CB
      TEMPO 2316/2319 -TSRA BKN035CB
     FM232200 17010KT P6SM BKN025
     FM240100 17010KT P6SM BKN050=

USA.gov is the U.S. government's official web portal to all federal, state and local government web resources and services.